Latest Coastal Weather Observations for Bairnsdale

IDV60701

Issued at 8:21 am EST Wednesday 26 April 2017 (issued every 10 minutes, with the page automatically refreshed every 10 minutes)

About coastal observations | Map of coastal stations | Coastal observations for VIC | Marine services | Other Formats
Station Details ID: 085279 Name: BAIRNSDALE AIRPORT Lat: -37.88 Lon: 147.57 Height: 49.4 m
Data from the previous 72 hours. | See also: Recent months at Bairnsdale
Date/Time
EST
Temp
°C
Wind Pressure Rain since
9am
mm
Weather Cloud Vis
km
Sea
Height
m
Swell
Dir  Spd
kts
Gust
kts
hPa Trend Height
m
Period
s
Dir
26/08:00am 10.5 W 13 19 1005.8 - 4.2 - Partly cloudy 10 - - - -
26/07:30am 10.7 W 16 22 1005.1 - 3.8 - Partly cloudy 10 - - - -
26/07:17am 11.3 W 11 23 1004.9 - 3.2 - Partly cloudy 10 - - - -
26/07:00am 11.3 W 6 8 1004.3 - 2.4 - Partly cloudy 10 - - - -
26/06:30am 11.1 SW 6 9 1003.4 - 2.4 - Partly cloudy 10 - - - -
26/06:00am 11.1 W 5 7 1003.3 - 1.8 Rain Cloudy 10 - - - -
26/05:30am 11.0 NE 4 7 1002.7 - 1.4 - Partly cloudy 10 - - - -
26/05:00am 10.7 NNE 5 6 1002.5 - 1.4 - - 10 - - - -
26/04:30am 11.0 NE 5 7 1002.4 - 1.4 - Partly cloudy 10 - - - -
26/04:00am 11.9 N 5 7 1002.8 - 1.4 - Cloudy 10 - - - -
26/03:30am 11.4 NNW 4 5 1003.0 - 1.4 - Partly cloudy 10 - - - -
26/03:00am 12.1 SW 9 10 1003.0 - 1.4 - Partly cloudy 10 - - - -
26/02:30am 12.9 SW 8 10 1003.7 - 1.4 - Partly cloudy 10 - - - -
26/02:00am 13.1 SW 10 14 1004.0 - 1.4 - Partly cloudy 10 - - - -
26/01:30am 11.0 NW 4 8 1003.5 - 1.2 - Partly cloudy 10 - - - -
26/01:00am 11.3 NE 4 6 1003.4 - 1.2 - Partly cloudy 10 - - - -
26/12:30am 11.9 NNE 7 9 1003.5 - 1.2 - Partly cloudy 10 - - - -
26/12:00am 12.0 N 6 9 1004.1 - 1.2 - - 10 - - - -
 
Date/Time
EST
Temp
°C
Wind Pressure Rain since
9am
mm
Weather Cloud Vis
km
Sea
Height
m
Swell
Dir  Spd
kts
Gust
kts
hPa Trend Height
m
Period
s
Dir
25/11:30pm 12.0 NNE 6 7 1004.3 - 1.2 - - 10 - - - -
25/11:00pm 12.6 NNE 5 6 1004.6 - 1.2 - - 10 - - - -
25/10:30pm 13.2 N 4 5 1005.1 - 1.2 - Partly cloudy 10 - - - -
25/10:00pm 13.6 N 3 5 1005.6 - 1.2 - Partly cloudy 10 - - - -
25/09:30pm 14.1 NW 4 5 1006.0 - 1.2 - Partly cloudy 10 - - - -
25/09:00pm 14.2 N 3 4 1006.1 - 1.2 - Cloudy 10 - - - -
25/08:30pm 14.2 WNW 4 5 1006.3 - 1.2 - Partly cloudy 10 - - - -
25/08:00pm 14.4 NW 4 5 1006.4 - 1.2 - Partly cloudy 10 - - - -
25/07:30pm 14.4 WNW 4 5 1006.3 - 1.2 - Partly cloudy 10 - - - -
25/07:00pm 14.9 WSW 7 10 1006.0 - 1.2 - Partly cloudy 10 - - - -
25/06:30pm 15.4 WSW 10 13 1005.8 - 1.2 - Partly cloudy 10 - - - -
25/06:00pm 15.8 WSW 7 10 1005.6 - 1.2 - Cloudy 10 - - - -
25/05:30pm 15.8 SW 3 4 1005.5 - 1.2 - Partly cloudy 10 - - - -
25/05:00pm 16.4 SSW 7 10 1005.3 - 1.2 - Partly cloudy 10 - - - -
25/04:30pm 17.1 WSW 12 16 1005.0 - 1.2 - Partly cloudy 10 - - - -
25/04:00pm 17.1 WSW 15 21 1004.8 - 1.2 - Partly cloudy 10 - - - -
25/03:30pm 17.8 WSW 16 23 1004.5 - 1.2 - Partly cloudy 10 - - - -
25/03:00pm 18.7 W 11 14 1004.3 - 1.2 - Mostly cloudy 10 - - - -
25/02:30pm 17.1 WSW 15 19 1004.0 - 1.2 - Partly cloudy 10 - - - -
25/02:00pm 17.3 WSW 17 24 1004.0 - 1.2 - Partly cloudy 10 - - - -
25/01:30pm 18.2 WSW 16 28 1004.1 - 1.2 - Partly cloudy 10 - - - -
25/01:25pm 19.3 W 11 28 1004.0 - 1.2 - Partly cloudy 10 - - - -
25/01:00pm 20.9 NNW 6 7 1003.9 - 1.2 - - 10 - - - -
25/12:30pm 21.3 NW 7 9 1004.3 - 1.2 - Partly cloudy 10 - - - -
25/12:00pm 18.8 N 4 6 1004.9 - 1.2 - - 10 - - - -
25/11:30am 17.9 N 6 7 1005.4 - 1.2 - Partly cloudy 10 - - - -
25/11:00am 17.6 NNE 5 7 1005.7 - 1.2 - Partly cloudy 10 - - - -
25/10:30am 17.2 NNE 5 7 1006.1 - 1.2 - Partly cloudy 10 - - - -
25/10:00am 16.5 NNE 5 7 1006.5 - 1.0 - Partly cloudy 10 - - - -
25/09:30am 15.8 N 4 6 1006.9 - 0.6 - Cloudy 10 - - - -
25/09:00am 15.5 NNE 5 6 1007.1 - 1.8 Rain Mostly cloudy 10 - - - -
25/08:30am 15.2 NNE 5 6 1007.5 - 1.2 - Cloudy 9 - - - -
25/08:00am 15.1 NE 3 6 1007.1 - 0.6 - Cloudy 10 - - - -
25/07:30am 15.0 NE 5 6 1007.1 - 0.6 - Partly cloudy 10 - - - -
25/07:00am 15.1 NE 3 4 1007.3 - 0.4 - Partly cloudy 9 - - - -
25/06:30am 15.1 NNW 4 5 1007.5 - 0.0 - Partly cloudy 10 - - - -
25/06:00am 15.6 NNE 5 6 1007.3 - 0.0 - Cloudy 10 - - - -
25/05:30am 15.9 SW 11 13 1007.5 - 0.0 - Partly cloudy 10 - - - -
25/05:00am 16.3 W 9 14 1007.8 - 0.0 - Partly cloudy 10 - - - -
25/04:30am 15.2 NW 5 6 1007.1 - 0.0 - Partly cloudy 10 - - - -
25/04:00am 16.4 NE 5 6 1007.0 - 0.0 - Partly cloudy 10 - - - -
25/03:30am 15.7 ENE 4 5 1007.3 - 0.0 - Cloudy 10 - - - -
25/03:00am 15.1 NE 4 5 1008.0 - 0.0 - Cloudy 10 - - - -
25/02:30am 13.9 CALM 0 0 1008.6 - 0.0 - - 10 - - - -
25/02:00am 14.2 NE 1 3 1008.9 - 0.0 - Partly cloudy 10 - - - -
25/01:30am 14.9 NE 4 6 1009.4 - 0.0 - Cloudy 10 - - - -
25/01:00am 14.9 NE 4 6 1010.3 - 0.0 - Cloudy 10 - - - -
25/12:30am 14.7 NNE 4 5 1010.9 - 0.0 - Partly cloudy 10 - - - -
25/12:13am 14.5 NNE 4 5 1011.4 - 0.0 - - 10 - - - -
25/12:00am 14.5 NNE 4 5 1011.6 - 0.0 - Partly cloudy 4 - - - -
 
Date/Time
EST
Temp
°C
Wind Pressure Rain since
9am
mm
Weather Cloud Vis
km
Sea
Height
m
Swell
Dir  Spd
kts
Gust
kts
hPa Trend Height
m
Period
s
Dir
24/11:30pm 14.0 N 3 4 1012.1 - 0.0 - Partly cloudy 2 - - - -
24/11:00pm 14.1 NE 4 5 1012.8 - 0.0 - - 5 - - - -
24/10:30pm 14.5 NE 5 6 1013.4 - 0.0 - - 5 - - - -
24/10:00pm 14.5 NNE 3 4 1013.7 - 0.0 - - 2 - - - -
24/09:49pm 14.3 NE 4 4 1013.8 - 0.0 - Partly cloudy 0.5 - - - -
24/09:30pm 13.3 NNE 3 4 1014.2 - 0.0 - Partly cloudy 0.1 - - - -
24/09:16pm 13.6 N 3 4 1014.4 - 0.0 - Partly cloudy 0.1 - - - -
24/09:00pm 14.1 N 3 4 1014.6 - 0.0 - - 0.3 - - - -
24/08:49pm 14.2 ENE 3 4 1014.7 - 0.0 - - 2 - - - -
24/08:30pm 15.0 E 4 5 1014.9 - 0.0 - Partly cloudy 10 - - - -
24/08:15pm 15.3 CALM 0 0 1015.0 - 0.0 - Partly cloudy 6 - - - -
24/08:00pm 14.6 CALM 0 0 1015.2 - 0.0 - Cloudy 4 - - - -
24/07:56pm 14.6 CALM 0 0 1015.2 - 0.0 - Cloudy 5 - - - -
24/07:30pm 14.9 CALM 0 0 1015.1 - 0.0 - Cloudy 10 - - - -
24/07:00pm 15.6 SSE 4 5 1015.3 - 0.0 - Partly cloudy 10 - - - -
24/06:30pm 15.4 SE 4 5 1015.3 - 0.0 - Partly cloudy 10 - - - -
24/06:00pm 15.7 SSE 4 5 1015.2 - 0.0 - - 10 - - - -
24/05:30pm 16.6 SSE 3 4 1015.3 - 0.0 - - 10 - - - -
24/05:00pm 17.8 SE 5 6 1015.2 - 0.0 - Partly cloudy 10 - - - -
24/04:30pm 18.3 SSE 5 7 1015.4 - 0.0 - Partly cloudy 10 - - - -
24/04:00pm 18.4 SE 6 8 1015.5 - 0.0 - Partly cloudy 10 - - - -
24/03:30pm 19.0 ESE 8 10 1015.6 - 0.0 - Cloudy 10 - - - -
24/03:00pm 20.1 SSE 9 11 1015.4 - 0.0 - Partly cloudy 10 - - - -
24/02:30pm 21.0 SE 10 12 1015.6 - 0.0 - Cloudy 10 - - - -
24/02:00pm 23.5 SE 5 8 1016.0 - 0.0 - Partly cloudy 10 - - - -
24/01:30pm 23.0 ESE 4 6 1016.3 - 0.0 - - 10 - - - -
24/01:00pm 23.1 E 4 7 1016.8 - 0.0 - - 10 - - - -
24/12:30pm 21.9 NE 3 6 1017.3 - 0.0 - - 10 - - - -
24/12:00pm 21.9 N 4 7 1018.3 - 0.0 - - 10 - - - -
24/11:30am 21.1 NNE 4 6 1018.9 - 0.0 - - 10 - - - -
24/11:00am 19.9 WNW 4 8 1019.5 - 0.0 - - 10 - - - -
24/10:30am 18.3 NE 3 4 1020.0 - 0.0 - - 10 - - - -
24/10:00am 17.4 NE 4 5 1020.4 - 0.0 - - 10 - - - -
24/09:30am 15.9 NNE 3 4 1020.8 - 0.0 - Partly cloudy 10 - - - -
24/09:12am 15.2 NNE 1 4 1020.8 - 0.0 - Partly cloudy 10 - - - -
24/09:08am 15.4 CALM 0 0 1020.9 - 0.0 - Partly cloudy 10 - - - -
24/09:00am 14.4 NNW 1 3 1021.0 - 0.2 - Partly cloudy 10 - - - -
24/08:30am 13.5 NW 4 6 1021.2 - 0.2 - Cloudy 0.3 - - - -
24/08:00am 12.6 N 4 5 1021.1 - 0.2 - Cloudy 0.2 - - - -
24/07:30am 11.9 CALM 0 0 1021.1 - 0.2 - Cloudy 0.5 - - - -
24/07:00am 11.3 WNW 4 5 1021.2 - 0.2 - Cloudy 0.1 - - - -
24/06:30am 11.4 N 3 4 1021.2 - 0.2 - Cloudy 0.3 - - - -
24/06:11am 10.7 W 2 4 1021.2 - 0.2 - Partly cloudy 0.1 - - - -
24/06:00am 11.5 CALM 0 2 1021.1 - 0.2 Recent precip. - 0.2 - - - -
24/05:37am 11.4 WSW 4 5 1021.2 - 0.0 - Partly cloudy 1 - - - -
24/05:30am 11.3 WSW 5 6 1021.2 - 0.0 - Partly cloudy 0.5 - - - -
24/05:00am 12.4 SW 4 5 1021.1 - 0.0 - Cloudy 0.2 - - - -
24/04:30am 12.5 W 4 5 1021.0 - 0.0 - Cloudy 0.1 - - - -
24/04:00am 12.5 SW 5 6 1020.8 - 0.0 - Cloudy 0.1 - - - -
24/03:30am 12.4 SW 4 5 1020.9 - 0.0 - Cloudy 0.2 - - - -
24/03:00am 12.7 NW 3 4 1021.0 - 0.0 - Cloudy 0.1 - - - -
24/02:30am 13.2 NW 4 4 1021.3 - 0.0 - Cloudy 0.1 - - - -
24/02:00am 14.7 N 3 3 1021.5 - 0.0 - Cloudy 0.1 - - - -
24/01:30am 15.0 NNW 2 4 1021.8 - 0.0 - Cloudy 0.1 - - - -
24/01:00am 13.9 CALM 0 0 1022.1 - 0.0 - Partly cloudy 0.1 - - - -
24/12:53am 13.9 CALM 0 0 1022.1 - 0.0 - Partly cloudy 0.1 - - - -
24/12:30am 15.1 CALM 0 0 1022.4 - 0.0 - Partly cloudy 7 - - - -
24/12:00am 14.9 CALM 0 0 1022.8 - 0.0 - Cloudy 5 - - - -
 
Date/Time
EST
Temp
°C
Wind Pressure Rain since
9am
mm
Weather Cloud Vis
km
Sea
Height
m
Swell
Dir  Spd
kts
Gust
kts
hPa Trend Height
m
Period
s
Dir
23/11:56pm 15.0 CALM 0 0 1022.8 - 0.0 - Partly cloudy 6 - - - -
23/11:30pm 14.9 CALM 0 0 1023.0 - 0.0 - Cloudy 5 - - - -
23/11:00pm 15.0 CALM 0 0 1023.3 - 0.0 - Partly cloudy 5 - - - -
23/10:59pm 15.0 CALM 0 0 1023.3 - 0.0 - Partly cloudy 5 - - - -
23/10:55pm 15.1 CALM 0 0 1023.3 - 0.0 - Partly cloudy 6 - - - -
23/10:30pm 14.9 CALM 0 0 1023.6 - 0.0 - Partly cloudy 3 - - - -
23/10:12pm 15.0 CALM 0 0 1023.7 - 0.0 - Partly cloudy 5 - - - -
23/10:05pm 15.5 CALM 0 0 1023.8 - 0.0 - Partly cloudy 10 - - - -
23/10:00pm 15.6 CALM 0 0 1023.8 - 0.0 - Partly cloudy 7 - - - -
23/09:45pm 15.4 CALM 0 0 1023.9 - 0.0 - Partly cloudy 5 - - - -
23/09:30pm 15.3 CALM 0 0 1023.9 - 0.0 - Partly cloudy 7 - - - -
23/09:25pm 15.5 CALM 0 0 1023.9 - 0.0 - Partly cloudy 8 - - - -
23/09:08pm 15.5 SSW 2 3 1023.9 - 0.0 - Partly cloudy 10 - - - -
23/09:00pm 15.6 SSW 3 4 1023.9 - 0.0 - Cloudy 9 - - - -
23/08:30pm 15.4 CALM 0 0 1023.7 - 0.0 - Partly cloudy 10 - - - -
23/08:01pm 15.1 SSW 3 4 1023.7 - 0.0 - Cloudy 7 - - - -
23/08:00pm 15.1 SSW 3 4 1023.7 - 0.0 - Cloudy 7 - - - -
23/07:30pm 14.3 CALM 0 0 1023.4 - 0.0 - Partly cloudy 4 - - - -
23/07:12pm 15.2 ESE 2 3 1023.2 - 0.0 - Cloudy 5 - - - -
23/07:00pm 15.8 ESE 2 3 1023.2 - 0.0 - Cloudy 10 - - - -
23/06:30pm 16.9 ESE 3 4 1023.1 - 0.0 - Cloudy 10 - - - -
23/06:00pm 17.0 E 5 6 1022.9 - 0.0 - Cloudy 10 - - - -
23/05:30pm 17.7 ESE 5 7 1022.8 - 0.0 - Cloudy 10 - - - -
23/05:00pm 17.9 ESE 5 7 1022.4 - 0.0 - Partly cloudy 10 - - - -
23/04:30pm 18.4 SE 8 11 1022.2 - 0.0 - - 10 - - - -
23/04:00pm 19.2 SE 10 12 1022.0 - 0.0 - - 10 - - - -
23/03:30pm 20.1 SE 10 12 1022.0 - 0.0 - - 10 - - - -
23/03:00pm 20.8 SSE 9 12 1021.9 - 0.0 - - 10 - - - -
23/02:30pm 21.3 SE 10 12 1021.9 - 0.0 - - 10 - - - -
23/02:00pm 21.6 SSE 6 9 1022.0 - 0.0 - Partly cloudy 10 - - - -
23/01:30pm 21.8 ESE 5 8 1022.2 - 0.0 - Partly cloudy 10 - - - -
23/01:00pm 22.1 S 4 8 1022.6 - 0.0 - Partly cloudy 10 - - - -
23/12:30pm 21.3 S 5 7 1022.9 - 0.0 - Partly cloudy 10 - - - -
23/12:00pm 21.6 NE 5 6 1023.3 - 0.0 - - 10 - - - -
23/11:30am 20.6 S 5 7 1023.7 - 0.0 - - 10 - - - -
23/11:00am 20.3 SW 5 8 1024.1 - 0.0 - - 10 - - - -
23/10:30am 19.9 W 5 9 1024.4 - 0.0 - - 10 - - - -
23/10:00am 19.7 WNW 7 9 1024.5 - 0.0 - Partly cloudy 10 - - - -
23/09:30am 18.5 NW 7 9 1024.6 - 0.0 - - 10 - - - -
23/09:00am 17.5 NW 7 8 1024.7 - 0.0 - - 10 - - - -
23/08:30am 16.1 NW 7 9 1024.7 - 0.0 - Partly cloudy 10 - - - -

Other Formats:

Comma delimited format used in spreadsheet applications
http://www.bom.gov.au/fwo/IDV60701/IDV60701.94912.axf

JavaScript Object Notation format (JSON) in row-major order
http://www.bom.gov.au/fwo/IDV60701/IDV60701.94912.json